Time;durP1;ratioP1;P1;durP2;ratioP2;P2;SDS_P1;SDS_P2;PMS_P1;PMS_P2;Temp;Humidity;BMP_temperature;BMP_pressure;BME280_temperature;BME280_humidity;BME280_pressure;Samples;Min_cycle;Max_cycle;Signal;HPM_P1;HPM_P2
2022/06/11 00:01:25;;;;;;;;;;;;;;;21.55;42.42;101910.75;5012141;28;19917;-46
2022/06/11 00:03:52;;;;;;;;;;;;;;;21.53;42.39;101912.72;5011738;28;19979;-47
2022/06/11 00:06:18;;;;;;;;;;;;;;;21.48;42.77;101910.41;5013437;28;19935;-47
2022/06/11 00:08:43;;;;;;;;;;;;;;;21.46;42.53;101908.84;5019676;28;19928;-46
2022/06/11 00:11:09;;;;;;;;;;;;;;;21.44;42.67;101908.13;5020519;28;19975;-46
2022/06/11 00:13:34;;;;;;;;;;;;;;;21.43;42.94;101909.13;5026655;28;20373;-46
2022/06/11 00:16:01;;;;;;;;;;;;;;;21.44;42.71;101909.00;5028323;28;20301;-47
2022/06/11 00:18:27;;;;;;;;;;;;;;;21.44;42.78;101908.13;5023272;28;19921;-45
2022/06/11 00:20:52;;;;;;;;;;;;;;;21.44;43.19;101910.81;5022171;28;19979;-46
2022/06/11 00:23:17;;;;;;;;;;;;;;;21.43;42.87;101906.44;5017901;28;19929;-48
2022/06/11 00:25:43;;;;;;;;;;;;;;;21.43;42.89;101909.13;5016327;28;19921;-47
2022/06/11 00:28:08;;;;;;;;;;;;;;;21.43;42.92;101904.63;5014165;28;20036;-46
2022/06/11 00:30:34;;;;;;;;;;;;;;;21.45;43.10;101910.69;5027675;28;19929;-47
2022/06/11 00:33:00;;;;;;;;;;;;;;;21.45;43.08;101905.34;5025066;28;20609;-46
2022/06/11 00:35:27;;;;;;;;;;;;;;;21.46;42.83;101914.22;5017807;28;19921;-49
2022/06/11 00:37:53;;;;;;;;;;;;;;;21.46;43.10;101911.53;5021139;28;20024;-47
2022/06/11 00:40:21;;;;;;;;;;;;;;;21.46;43.29;101909.72;5016048;28;19925;-47
2022/06/11 00:42:46;;;;;;;;;;;;;;;21.44;43.31;101900.97;5018013;28;19953;-45
2022/06/11 00:45:21;;;;;;;;;;;;;;;21.44;43.34;101905.47;5021386;28;19968;-45
2022/06/11 00:48:06;;;;;;;;;;;;;;;21.43;43.21;101906.44;5026984;28;20381;-46
2022/06/11 00:50:37;;;;;;;;;;;;;;;21.44;43.38;101894.75;5021092;28;19925;-45
2022/06/11 00:53:03;;;;;;;;;;;;;;;21.42;43.25;101888.69;5017972;28;19948;-46
2022/06/11 00:55:34;;;;;;;;;;;;;;;21.43;43.42;101895.72;5018838;28;19929;-48
2022/06/11 00:57:59;;;;;;;;;;;;;;;21.44;43.33;101892.94;5021149;28;19960;-46
2022/06/11 01:00:27;;;;;;;;;;;;;;;21.45;43.26;101889.28;5017168;28;20032;-46
2022/06/11 01:02:53;;;;;;;;;;;;;;;21.46;43.25;101882.94;5015066;28;20007;-45
2022/06/11 01:05:29;;;;;;;;;;;;;;;21.45;43.18;101881.25;5016858;28;19932;-46
2022/06/11 01:08:21;;;;;;;;;;;;;;;21.45;43.30;101889.28;5023782;28;19963;-50
2022/06/11 01:10:49;;;;;;;;;;;;;;;21.46;43.42;101893.66;5020660;28;19917;-47
2022/06/11 01:13:20;;;;;;;;;;;;;;;21.45;43.26;101888.41;5016073;28;19940;-47
2022/06/11 01:15:50;;;;;;;;;;;;;;;21.44;43.23;101887.59;5020727;28;19932;-48
2022/06/11 01:18:18;;;;;;;;;;;;;;;21.43;43.22;101887.69;5024885;28;19921;-48
2022/06/11 01:21:12;;;;;;;;;;;;;;;21.41;43.62;101886.97;5022496;28;19920;-50
2022/06/11 01:23:56;;;;;;;;;;;;;;;21.36;43.62;101882.03;5020594;28;19917;-48
2022/06/11 01:26:31;;;;;;;;;;;;;;;21.33;43.18;101884.97;5021950;28;19968;-47
2022/06/11 01:29:15;;;;;;;;;;;;;;;21.30;43.28;101882.56;5015790;28;20373;-47
2022/06/11 01:31:49;;;;;;;;;;;;;;;21.26;43.14;101879.28;5019868;28;20296;-47
2022/06/11 01:34:30;;;;;;;;;;;;;;;21.27;43.45;101878.31;5014601;28;19925;-48
2022/06/11 01:36:59;;;;;;;;;;;;;;;21.28;43.29;101873.81;5017212;28;19986;-49
2022/06/11 01:39:24;;;;;;;;;;;;;;;21.28;43.57;101871.97;5022228;28;19925;-48
2022/06/11 01:41:58;;;;;;;;;;;;;;;21.29;43.08;101864.81;5017775;28;19917;-47
2022/06/11 01:44:29;;;;;;;;;;;;;;;21.29;43.53;101860.28;5017254;28;20714;-49
2022/06/11 01:46:56;;;;;;;;;;;;;;;21.30;43.29;101863.81;5013794;28;19928;-47
2022/06/11 01:49:21;;;;;;;;;;;;;;;21.31;43.28;101868.22;5016932;28;19925;-47
2022/06/11 01:52:12;;;;;;;;;;;;;;;21.30;43.26;101871.84;5015896;28;19925;-45
2022/06/11 01:54:47;;;;;;;;;;;;;;;21.29;43.34;101868.31;5006071;28;19925;-46
2022/06/11 01:57:20;;;;;;;;;;;;;;;21.26;43.62;101863.22;5013865;28;19939;-47
2022/06/11 02:00:05;;;;;;;;;;;;;;;21.26;43.61;101865.06;5019425;28;19948;-47
2022/06/11 02:02:31;;;;;;;;;;;;;;;21.24;43.85;101870.56;5017461;28;19917;-45
2022/06/11 02:05:05;;;;;;;;;;;;;;;21.22;43.81;101872.50;5023497;28;20278;-48
2022/06/11 02:07:33;;;;;;;;;;;;;;;21.20;43.79;101874.47;5023367;28;19925;-46
2022/06/11 02:10:18;;;;;;;;;;;;;;;21.16;43.55;101878.38;5025659;28;20011;-46
2022/06/11 02:12:53;;;;;;;;;;;;;;;21.13;43.97;101873.28;5015179;28;20694;-45
2022/06/11 02:15:25;;;;;;;;;;;;;;;21.10;44.10;101876.25;5020839;28;20390;-45
2022/06/11 02:17:54;;;;;;;;;;;;;;;21.07;43.68;101871.16;5021507;28;19921;-48
2022/06/11 02:20:29;;;;;;;;;;;;;;;21.05;43.91;101883.81;5016596;28;20012;-47
2022/06/11 02:23:02;;;;;;;;;;;;;;;21.01;44.11;101878.72;5016424;28;19917;-45
2022/06/11 02:25:30;;;;;;;;;;;;;;;20.97;44.00;101877.25;5020450;28;20282;-47
2022/06/11 02:27:59;;;;;;;;;;;;;;;20.94;44.34;101885.56;5015836;28;19925;-45
2022/06/11 02:30:26;;;;;;;;;;;;;;;20.91;44.27;101883.16;5018538;28;19970;-49
2022/06/11 02:32:52;;;;;;;;;;;;;;;20.88;44.38;101883.41;5021066;28;19917;-47
2022/06/11 02:35:43;;;;;;;;;;;;;;;20.84;44.39;101884.63;5017369;28;19923;-47
2022/06/11 02:38:11;;;;;;;;;;;;;;;20.81;44.52;101888.41;5007620;28;19921;-45
2022/06/11 02:40:41;;;;;;;;;;;;;;;20.79;44.29;101886.84;5016179;28;19935;-45
2022/06/11 02:43:07;;;;;;;;;;;;;;;20.75;44.69;101891.59;5014690;28;19921;-50
2022/06/11 02:45:32;;;;;;;;;;;;;;;20.75;44.43;101898.75;5016696;28;19929;-46
2022/06/11 02:47:57;;;;;;;;;;;;;;;20.73;44.56;101898.84;5018015;28;19929;-46
2022/06/11 02:50:25;;;;;;;;;;;;;;;20.70;44.65;101899.97;5016609;28;19936;-46
2022/06/11 02:52:51;;;;;;;;;;;;;;;20.67;44.78;101897.53;5016445;28;20776;-47
2022/06/11 02:55:17;;;;;;;;;;;;;;;20.66;44.63;101890.50;5018789;28;19926;-45
2022/06/11 02:57:42;;;;;;;;;;;;;;;20.64;45.07;101896.94;5017354;28;19925;-46
2022/06/11 03:00:10;;;;;;;;;;;;;;;20.63;44.65;101900.59;5022530;28;20023;-47
2022/06/11 03:02:35;;;;;;;;;;;;;;;20.61;44.89;101898.06;5018255;28;21292;-46
2022/06/11 03:05:01;;;;;;;;;;;;;;;20.58;45.00;101905.47;5019046;28;19982;-46
2022/06/11 03:07:26;;;;;;;;;;;;;;;20.56;45.02;101905.59;5032864;28;19932;-45
2022/06/11 03:09:51;;;;;;;;;;;;;;;20.55;44.91;101903.91;5021596;28;19947;-45
2022/06/11 03:12:17;;;;;;;;;;;;;;;20.52;44.82;101902.34;5021204;28;19917;-46
2022/06/11 03:14:42;;;;;;;;;;;;;;;20.51;45.28;101905.13;5008886;28;19925;-48
2022/06/11 03:17:09;;;;;;;;;;;;;;;20.49;45.17;101909.78;5020531;28;20351;-49
2022/06/11 03:19:35;;;;;;;;;;;;;;;20.46;45.38;101910.00;5023192;28;19916;-46
2022/06/11 03:22:00;;;;;;;;;;;;;;;20.45;45.24;101916.34;5023666;28;19940;-47
2022/06/11 03:24:26;;;;;;;;;;;;;;;20.44;45.39;101915.47;5014124;28;20471;-45
2022/06/11 03:26:51;;;;;;;;;;;;;;;20.43;45.38;101918.28;5015378;28;19921;-45
2022/06/11 03:29:18;;;;;;;;;;;;;;;20.39;45.84;101918.53;5020382;28;20827;-45
2022/06/11 03:31:44;;;;;;;;;;;;;;;20.37;45.55;101915.13;5016058;28;20076;-47
2022/06/11 03:34:10;;;;;;;;;;;;;;;20.37;45.37;101919.63;5014927;28;20011;-46
2022/06/11 03:36:35;;;;;;;;;;;;;;;20.37;45.81;101920.47;5018609;28;19970;-45
2022/06/11 03:39:02;;;;;;;;;;;;;;;20.36;45.64;101926.78;5016045;28;20016;-46
2022/06/11 03:41:27;;;;;;;;;;;;;;;20.36;45.96;101926.78;5014814;28;19969;-47
2022/06/11 03:43:53;;;;;;;;;;;;;;;20.36;46.12;101929.44;5012657;28;19960;-45
2022/06/11 03:46:19;;;;;;;;;;;;;;;20.35;45.82;101930.44;5014082;28;19961;-45
2022/06/11 03:48:44;;;;;;;;;;;;;;;20.34;45.86;101925.22;5014318;28;19921;-46
2022/06/11 03:51:10;;;;;;;;;;;;;;;20.33;46.17;101920.84;5015084;28;19925;-46
2022/06/11 03:53:37;;;;;;;;;;;;;;;20.31;45.95;101926.31;5017112;28;20301;-46
2022/06/11 03:56:02;;;;;;;;;;;;;;;20.30;46.33;101919.28;5017118;28;19921;-48
2022/06/11 03:58:28;;;;;;;;;;;;;;;20.30;46.34;101921.94;5017349;28;20455;-48
2022/06/11 04:03:38;;;;;;;;;;;;;;;20.31;46.49;101923.66;5015031;28;19925;-47
2022/06/11 04:06:03;;;;;;;;;;;;;;;20.32;46.56;101922.69;5017932;28;19925;-47
2022/06/11 04:08:29;;;;;;;;;;;;;;;20.31;46.61;101926.31;5016195;28;19947;-48
2022/06/11 04:10:56;;;;;;;;;;;;;;;20.31;46.34;101920.97;5013958;28;20014;-47
2022/06/11 04:13:23;;;;;;;;;;;;;;;20.30;46.42;101923.75;5013077;28;19921;-47
2022/06/11 04:15:48;;;;;;;;;;;;;;;20.29;46.50;101920.25;5019437;28;19921;-48
2022/06/11 04:18:29;;;;;;;;;;;;;;;20.30;46.49;101929.97;5017588;28;19924;-49
2022/06/11 04:20:55;;;;;;;;;;;;;;;20.32;46.88;101922.69;5014247;28;19952;-51
2022/06/11 04:23:24;;;;;;;;;;;;;;;20.32;46.73;101920.00;5013305;28;19917;-47
2022/06/11 04:25:49;;;;;;;;;;;;;;;20.35;46.67;101925.06;5015319;28;19968;-47
2022/06/11 04:28:14;;;;;;;;;;;;;;;20.35;46.82;101919.72;5019426;28;20051;-48
2022/06/11 04:30:40;;;;;;;;;;;;;;;20.37;46.75;101920.47;5019691;28;19921;-48
2022/06/11 04:33:05;;;;;;;;;;;;;;;20.37;47.15;101919.63;5017886;28;20300;-48
2022/06/11 04:35:31;;;;;;;;;;;;;;;20.37;47.07;101920.47;5012380;28;19979;-48
2022/06/11 04:37:56;;;;;;;;;;;;;;;20.39;47.00;101913.19;5017577;28;19925;-47
2022/06/11 04:40:22;;;;;;;;;;;;;;;20.43;46.87;101926.28;5021955;28;20355;-47
2022/06/11 04:42:47;;;;;;;;;;;;;;;20.44;46.97;101914.63;5018869;28;19925;-48
2022/06/11 04:45:13;;;;;;;;;;;;;;;20.46;47.03;101924.22;5021601;28;19983;-47
2022/06/11 04:47:39;;;;;;;;;;;;;;;20.49;47.18;101917.78;5017824;28;19972;-49
2022/06/11 04:50:05;;;;;;;;;;;;;;;20.51;47.26;101913.13;5020056;28;20011;-50
2022/06/11 04:52:30;;;;;;;;;;;;;;;20.55;47.09;101917.28;5023249;28;20433;-48
2022/06/11 04:54:55;;;;;;;;;;;;;;;20.59;47.22;101920.53;5021286;28;19917;-47
2022/06/11 04:57:21;;;;;;;;;;;;;;;20.61;47.28;101919.44;5026892;28;19925;-45
2022/06/11 04:59:47;;;;;;;;;;;;;;;20.63;47.00;101916.63;5027425;28;19924;-46
2022/06/11 05:02:12;;;;;;;;;;;;;;;20.68;47.22;101923.31;5029989;28;19921;-47
2022/06/11 05:04:37;;;;;;;;;;;;;;;20.73;47.15;101922.09;5022908;28;21112;-45
2022/06/11 05:07:03;;;;;;;;;;;;;;;20.77;47.12;101926.25;5021054;28;19928;-45
2022/06/11 05:09:28;;;;;;;;;;;;;;;20.81;46.72;101933.00;5022949;28;19918;-46
2022/06/11 05:11:54;;;;;;;;;;;;;;;20.88;47.01;101934.22;5024843;28;19921;-46
2022/06/11 05:14:20;;;;;;;;;;;;;;;20.93;46.46;101924.00;5026674;28;19928;-46
2022/06/11 05:16:46;;;;;;;;;;;;;;;21.00;46.45;101922.50;5022605;28;19921;-48
2022/06/11 05:19:13;;;;;;;;;;;;;;;21.08;46.14;101924.53;5022720;28;19921;-49
2022/06/11 05:21:40;;;;;;;;;;;;;;;21.16;46.26;101924.75;5029347;28;20004;-46
2022/06/11 05:24:05;;;;;;;;;;;;;;;21.24;45.96;101926.78;5023000;28;19917;-46
2022/06/11 05:26:33;;;;;;;;;;;;;;;21.32;45.71;101929.63;5021490;28;19933;-45
2022/06/11 05:29:00;;;;;;;;;;;;;;;21.40;45.86;101925.47;5023366;28;19917;-45
2022/06/11 05:31:25;;;;;;;;;;;;;;;21.47;45.56;101927.50;5029524;28;19928;-46
2022/06/11 05:33:50;;;;;;;;;;;;;;;21.53;45.46;101931.47;5027044;28;19929;-45
2022/06/11 05:36:16;;;;;;;;;;;;;;;21.59;45.38;101930.09;5022863;28;19921;-46
2022/06/11 05:38:42;;;;;;;;;;;;;;;21.65;45.75;101929.56;5022076;28;19932;-46
2022/06/11 05:41:08;;;;;;;;;;;;;;;21.72;45.74;101935.25;5026587;28;19940;-47
2022/06/11 05:43:33;;;;;;;;;;;;;;;21.77;45.37;101931.19;5023176;28;19916;-46
2022/06/11 05:46:05;;;;;;;;;;;;;;;21.80;45.40;101932.75;5027000;28;19940;-45
2022/06/11 05:48:34;;;;;;;;;;;;;;;21.81;45.53;101929.09;5023898;28;19959;-46
2022/06/11 05:50:59;;;;;;;;;;;;;;;21.81;45.32;101929.09;5025734;28;19933;-45
2022/06/11 05:53:25;;;;;;;;;;;;;;;21.81;45.49;101920.19;5017762;28;19922;-46
2022/06/11 05:55:51;;;;;;;;;;;;;;;21.79;45.59;101917.66;5029332;28;19925;-47
2022/06/11 05:58:19;;;;;;;;;;;;;;;21.81;45.54;101928.22;5032364;28;20357;-46
2022/06/11 06:00:45;;;;;;;;;;;;;;;21.81;45.77;101929.09;5022833;28;19964;-46
2022/06/11 06:03:10;;;;;;;;;;;;;;;21.83;45.74;101927.13;5024020;28;19945;-49
2022/06/11 06:05:39;;;;;;;;;;;;;;;21.85;45.73;101927.84;5023954;28;20769;-48
2022/06/11 06:08:05;;;;;;;;;;;;;;;21.87;45.86;101935.75;5019486;28;20886;-47
2022/06/11 06:10:31;;;;;;;;;;;;;;;21.87;45.91;101931.22;5018648;28;20389;-45
2022/06/11 06:12:56;;;;;;;;;;;;;;;21.91;45.63;101929.16;5015790;28;19936;-46
2022/06/11 06:15:23;;;;;;;;;;;;;;;21.97;45.75;101933.13;5018654;28;19928;-46
2022/06/11 06:17:49;;;;;;;;;;;;;;;22.00;45.79;101933.69;5019919;28;19932;-47
2022/06/11 06:20:16;;;;;;;;;;;;;;;22.04;45.50;101929.75;5015827;28;19917;-46
2022/06/11 06:22:42;;;;;;;;;;;;;;;22.09;45.64;101932.03;5019086;28;19918;-49
2022/06/11 06:25:08;;;;;;;;;;;;;;;22.13;45.46;101925.41;5016079;28;19920;-46
2022/06/11 06:27:33;;;;;;;;;;;;;;;22.20;45.62;101931.91;5020385;28;19916;-45
2022/06/11 06:29:59;;;;;;;;;;;;;;;22.28;45.52;101927.72;5016968;28;20301;-45
2022/06/11 06:32:24;;;;;;;;;;;;;;;22.36;45.26;101935.91;5026278;28;20023;-45
2022/06/11 06:34:50;;;;;;;;;;;;;;;22.43;45.36;101944.28;5014790;28;20391;-46
2022/06/11 06:37:15;;;;;;;;;;;;;;;22.51;45.17;101939.09;5022755;28;19930;-46
2022/06/11 06:39:40;;;;;;;;;;;;;;;22.60;45.12;101934.72;5024165;28;19913;-45
2022/06/11 06:42:06;;;;;;;;;;;;;;;22.68;45.10;101927.69;5020117;28;19921;-46
2022/06/11 06:44:32;;;;;;;;;;;;;;;22.78;44.75;101924.16;5016467;28;19980;-45
2022/06/11 06:46:57;;;;;;;;;;;;;;;22.87;44.65;101928.66;5019751;28;20361;-45
2022/06/11 06:49:23;;;;;;;;;;;;;;;22.94;44.63;101924.44;5021032;28;19963;-45
2022/06/11 06:51:48;;;;;;;;;;;;;;;23.01;44.32;101924.72;5024898;28;19921;-45
2022/06/11 06:54:14;;;;;;;;;;;;;;;23.08;44.47;101928.50;5017549;28;19937;-45
2022/06/11 06:56:39;;;;;;;;;;;;;;;23.14;44.43;101919.91;5021776;28;19957;-44
2022/06/11 06:59:05;;;;;;;;;;;;;;;23.23;44.21;101909.31;5020969;28;19964;-47
2022/06/11 07:01:31;;;;;;;;;;;;;;;23.29;44.31;101912.25;5027091;28;20000;-46
2022/06/11 07:03:57;;;;;;;;;;;;;;;23.35;43.96;101918.94;5018928;28;20328;-47
2022/06/11 07:06:23;;;;;;;;;;;;;;;23.42;43.96;101924.56;5016748;28;19928;-46
2022/06/11 07:08:49;;;;;;;;;;;;;;;23.46;44.10;101920.56;5016742;28;19925;-46
2022/06/11 07:11:15;;;;;;;;;;;;;;;23.47;44.01;101918.75;5013887;28;20455;-46
2022/06/11 07:13:40;;;;;;;;;;;;;;;23.49;43.69;101922.16;5013236;28;19925;-46
2022/06/11 07:16:06;;;;;;;;;;;;;;;23.52;43.77;101921.84;5023170;28;19975;-47
2022/06/11 07:18:36;;;;;;;;;;;;;;;23.55;43.76;101921.53;5021178;28;19936;-44
2022/06/11 07:21:03;;;;;;;;;;;;;;;23.58;43.87;101932.00;5002692;28;19923;-47
2022/06/11 07:23:28;;;;;;;;;;;;;;;23.58;43.63;101926.63;4999075;28;20890;-49
2022/06/11 07:25:55;;;;;;;;;;;;;;;23.58;43.62;101929.31;5009765;28;19921;-48
2022/06/11 07:28:26;;;;;;;;;;;;;;;23.59;43.74;101931.88;5017705;28;19947;-44
2022/06/11 07:30:52;;;;;;;;;;;;;;;23.58;43.56;101932.88;5014717;28;19929;-45
2022/06/11 07:33:21;;;;;;;;;;;;;;;23.55;43.41;101933.16;5011213;28;19921;-46
2022/06/11 07:35:47;;;;;;;;;;;;;;;23.51;43.59;101930.91;5006769;28;19932;-44
2022/06/11 07:38:13;;;;;;;;;;;;;;;23.47;43.73;101933.00;5010155;28;19921;-47
2022/06/11 07:40:39;;;;;;;;;;;;;;;23.47;43.96;101930.31;5011278;28;19956;-45
2022/06/11 07:43:06;;;;;;;;;;;;;;;23.47;43.92;101929.50;5011456;28;20364;-45
2022/06/11 07:45:32;;;;;;;;;;;;;;;23.48;43.94;101923.97;5010872;28;19935;-45
2022/06/11 07:47:58;;;;;;;;;;;;;;;23.51;44.17;101925.53;5012552;28;19932;-45
2022/06/11 07:50:25;;;;;;;;;;;;;;;23.51;44.13;101931.75;5018953;28;20352;-49
2022/06/11 07:52:51;;;;;;;;;;;;;;;23.48;44.50;101926.66;5016957;28;19978;-47
2022/06/11 07:55:16;;;;;;;;;;;;;;;23.45;44.39;101932.31;5015291;28;19929;-46
2022/06/11 07:57:42;;;;;;;;;;;;;;;23.43;44.67;101928.94;5012826;28;19975;-45
2022/06/11 08:00:08;;;;;;;;;;;;;;;23.43;44.58;101932.47;5008959;28;19924;-45
2022/06/11 08:02:34;;;;;;;;;;;;;;;23.46;44.55;101933.16;5006999;28;19920;-46
2022/06/11 08:04:59;;;;;;;;;;;;;;;23.46;44.29;101930.47;5014059;28;21166;-45
2022/06/11 08:07:27;;;;;;;;;;;;;;;23.43;44.21;101924.41;5015939;28;19928;-47
2022/06/11 08:09:53;;;;;;;;;;;;;;;23.43;44.04;101937.84;5014189;28;19925;-45
2022/06/11 08:12:19;;;;;;;;;;;;;;;23.42;44.13;101927.25;5013245;28;20492;-46
2022/06/11 08:14:44;;;;;;;;;;;;;;;23.42;43.70;101922.72;5013462;28;19917;-45
2022/06/11 08:17:09;;;;;;;;;;;;;;;23.44;43.77;101928.78;5007188;28;19936;-45
2022/06/11 08:19:34;;;;;;;;;;;;;;;23.46;43.56;101925.94;5011531;28;19937;-46
2022/06/11 08:22:00;;;;;;;;;;;;;;;23.49;43.68;101927.50;5012460;28;20440;-47
2022/06/11 08:24:25;;;;;;;;;;;;;;;23.51;43.58;101934.44;5018067;28;19922;-47
2022/06/11 08:26:51;;;;;;;;;;;;;;;23.51;43.42;101926.38;5008353;28;19941;-47
2022/06/11 08:29:16;;;;;;;;;;;;;;;23.55;43.55;101934.97;5016422;28;20099;-46
2022/06/11 08:31:41;;;;;;;;;;;;;;;23.56;43.31;101932.16;5019894;28;19964;-49
2022/06/11 08:34:06;;;;;;;;;;;;;;;23.61;43.33;101934.41;5006733;28;20359;-48
2022/06/11 08:36:32;;;;;;;;;;;;;;;23.65;43.11;101938.50;5018583;28;20697;-48
2022/06/11 08:38:57;;;;;;;;;;;;;;;23.64;43.25;101931.44;5018061;28;19930;-48
2022/06/11 08:41:27;;;;;;;;;;;;;;;23.67;43.35;101943.72;5021602;28;19928;-49
2022/06/11 08:43:58;;;;;;;;;;;;;;;23.65;43.36;101943.88;5015704;28;19921;-46
2022/06/11 08:46:25;;;;;;;;;;;;;;;23.65;43.39;101946.56;5022589;28;19979;-46
2022/06/11 08:48:53;;;;;;;;;;;;;;;23.66;43.51;101939.34;5017589;28;19953;-46
2022/06/11 08:51:24;;;;;;;;;;;;;;;23.71;43.68;101939.75;5018269;28;20015;-45
2022/06/11 08:53:51;;;;;;;;;;;;;;;23.77;43.60;101939.16;5018689;28;20364;-48
2022/06/11 08:56:27;;;;;;;;;;;;;;;23.83;43.49;101945.78;5021508;28;21603;-46
2022/06/11 08:59:15;;;;;;;;;;;;;;;23.89;43.49;101942.50;5014919;28;20353;-45
2022/06/11 09:01:48;;;;;;;;;;;;;;;23.94;43.47;101942.91;5020264;28;19932;-47
2022/06/11 09:04:23;;;;;;;;;;;;;;;23.95;43.50;101949.13;5020389;28;19936;-46
2022/06/11 09:06:48;;;;;;;;;;;;;;;23.96;43.80;101948.13;5012232;28;19936;-46
2022/06/11 09:09:20;;;;;;;;;;;;;;;23.99;43.67;101946.03;5014082;28;19917;-46
2022/06/11 09:11:51;;;;;;;;;;;;;;;24.04;43.49;101951.81;5012105;28;19921;-49
2022/06/11 09:14:16;;;;;;;;;;;;;;;24.07;43.48;101947.13;5021363;28;19978;-45
2022/06/11 09:16:48;;;;;;;;;;;;;;;24.07;43.52;101956.03;5018811;28;19925;-46
2022/06/11 09:19:32;;;;;;;;;;;;;;;24.08;43.59;101949.66;5023519;28;19925;-45
2022/06/11 09:22:00;;;;;;;;;;;;;;;24.10;43.50;101947.69;5022177;28;19925;-46
2022/06/11 09:24:32;;;;;;;;;;;;;;;24.08;43.55;101952.34;5021236;28;19924;-46
2022/06/11 09:27:00;;;;;;;;;;;;;;;24.09;43.71;101945.97;5016571;28;20021;-46
2022/06/11 09:29:29;;;;;;;;;;;;;;;24.11;43.65;101951.22;5021226;28;19928;-47
2022/06/11 09:32:00;;;;;;;;;;;;;;;24.14;43.71;101950.91;5020790;28;19933;-47
2022/06/11 09:34:28;;;;;;;;;;;;;;;24.17;43.71;101946.09;5015372;28;19927;-47
2022/06/11 09:37:07;;;;;;;;;;;;;;;24.23;43.77;101949.16;5019276;28;19926;-47
2022/06/11 09:39:36;;;;;;;;;;;;;;;24.25;43.64;101942.66;5017651;28;19964;-47
2022/06/11 09:42:10;;;;;;;;;;;;;;;24.27;43.75;101948.75;5020494;28;19917;-48
2022/06/11 09:44:54;;;;;;;;;;;;;;;24.27;43.71;101942.50;5018472;28;22020;-45
2022/06/11 09:47:37;;;;;;;;;;;;;;;24.26;43.55;101947.06;5010555;28;19956;-49
2022/06/11 09:50:02;;;;;;;;;;;;;;;24.25;43.62;101939.97;5020608;28;19956;-47
2022/06/11 09:52:41;;;;;;;;;;;;;;;24.27;43.50;101940.69;5015456;28;20004;-47
2022/06/11 09:55:27;;;;;;;;;;;;;;;24.26;43.55;101941.66;5022820;28;20396;-47
2022/06/11 09:58:11;;;;;;;;;;;;;;;24.27;43.65;101942.50;5016853;28;19974;-47
2022/06/11 10:00:39;;;;;;;;;;;;;;;24.32;43.56;101941.06;5019905;28;19952;-48
2022/06/11 10:03:47;;;;;;;;;;;;;;;24.37;43.47;101939.75;5024955;28;19923;-46
2022/06/11 10:05:59;;;;;;;;;;;;;;;24.43;43.66;101934.63;5019110;28;19983;-49
2022/06/11 10:08:35;;;;;;;;;;;;;;;24.47;43.52;101935.16;5013878;28;19929;-46
2022/06/11 10:11:04;;;;;;;;;;;;;;;24.51;43.48;101939.25;5012319;28;19921;-46
2022/06/11 10:13:36;;;;;;;;;;;;;;;24.57;43.53;101938.66;5025431;28;19917;-46
2022/06/11 10:16:07;;;;;;;;;;;;;;;24.64;43.32;101939.72;5014646;28;19918;-48
2022/06/11 10:18:35;;;;;;;;;;;;;;;24.68;43.26;101936.72;5021254;28;19917;-46
2022/06/11 10:21:05;;;;;;;;;;;;;;;24.70;43.21;101934.75;5009610;28;19936;-46
2022/06/11 10:23:30;;;;;;;;;;;;;;;24.73;42.99;101932.59;5017262;28;19928;-46
2022/06/11 10:25:59;;;;;;;;;;;;;;;24.78;42.88;101932.13;5006578;28;19926;-50
2022/06/11 10:28:24;;;;;;;;;;;;;;;24.84;42.87;101933.38;5019437;28;19933;-50
2022/06/11 10:30:52;;;;;;;;;;;;;;;24.91;42.87;101929.06;5019452;28;19943;-53
2022/06/11 10:33:21;;;;;;;;;;;;;;;24.98;42.69;101931.97;5014027;28;19932;-51
2022/06/11 10:36:13;;;;;;;;;;;;;;;25.03;42.75;101927.00;5017744;28;19917;-51
2022/06/11 10:39:14;;;;;;;;;;;;;;;25.09;42.51;101918.28;5020362;28;19917;-50
2022/06/11 10:41:54;;;;;;;;;;;;;;;25.21;42.55;101929.66;4989786;28;19925;-49
2022/06/11 10:44:38;;;;;;;;;;;;;;;25.29;42.43;101916.22;5006853;28;19925;-48
2022/06/11 10:47:27;;;;;;;;;;;;;;;25.40;42.15;101921.38;5014665;28;19928;-49
2022/06/11 10:50:02;;;;;;;;;;;;;;;25.52;42.15;101921.97;5012378;28;19928;-52
2022/06/11 10:52:45;;;;;;;;;;;;;;;25.61;41.79;101925.56;5018166;28;20146;-53
2022/06/11 10:55:15;;;;;;;;;;;;;;;25.65;41.87;101920.69;5015702;28;19932;-56
2022/06/11 10:57:40;;;;;;;;;;;;;;;25.66;41.83;101916.97;5004391;28;20793;-52
2022/06/11 11:00:06;;;;;;;;;;;;;;;25.65;41.50;101916.16;5012163;28;19988;-51
2022/06/11 11:02:36;;;;;;;;;;;;;;;25.66;41.58;101909.75;5015203;28;19925;-52
2022/06/11 11:05:06;;;;;;;;;;;;;;;25.66;41.35;101912.47;5014384;28;19924;-50
2022/06/11 11:07:41;;;;;;;;;;;;;;;25.69;41.37;101905.88;5014227;28;19933;-54
2022/06/11 11:10:16;;;;;;;;;;;;;;;25.71;41.32;101909.28;5019888;28;19917;-49
2022/06/11 11:12:42;;;;;;;;;;;;;;;25.68;41.19;101917.66;5024867;28;20008;-50
2022/06/11 11:15:10;;;;;;;;;;;;;;;25.65;41.42;101912.59;5017465;28;20012;-56
2022/06/11 11:17:43;;;;;;;;;;;;;;;25.67;41.21;101902.50;5017504;28;19924;-54
2022/06/11 11:20:30;;;;;;;;;;;;;;;25.67;41.18;101902.50;5013410;28;19921;-50
2022/06/11 11:22:59;;;;;;;;;;;;;;;25.62;41.04;101904.84;5016303;28;19989;-49
2022/06/11 11:25:45;;;;;;;;;;;;;;;25.61;41.00;101905.88;5017342;28;20059;-52
2022/06/11 11:28:23;;;;;;;;;;;;;;;25.59;41.03;101900.63;5011986;28;20024;-54
2022/06/11 11:31:09;;;;;;;;;;;;;;;25.59;41.08;101906.00;5023703;28;19974;-51
2022/06/11 11:33:36;;;;;;;;;;;;;;;25.55;40.94;101900.09;5009715;28;19922;-53
2022/06/11 11:36:30;;;;;;;;;;;;;;;25.52;40.99;101894.19;5015393;28;19991;-53
2022/06/11 11:39:18;;;;;;;;;;;;;;;25.51;40.79;101887.94;5009494;28;19972;-51
2022/06/11 11:41:59;;;;;;;;;;;;;;;25.56;40.94;101884.78;5007749;28;19928;-52
2022/06/11 11:44:24;;;;;;;;;;;;;;;25.60;40.99;101880.75;5018336;28;19920;-56
2022/06/11 11:46:59;;;;;;;;;;;;;;;25.65;40.92;101882.94;5018955;28;19941;-50
2022/06/11 11:49:27;;;;;;;;;;;;;;;25.67;40.83;101880.94;5014022;28;19924;-50
2022/06/11 11:51:55;;;;;;;;;;;;;;;25.68;40.64;101871.84;5019666;28;19948;-50
2022/06/11 11:54:22;;;;;;;;;;;;;;;25.75;40.56;101867.53;5010438;28;19921;-52
2022/06/11 11:56:50;;;;;;;;;;;;;;;25.79;40.61;101874.25;5007319;28;19983;-51
2022/06/11 11:59:28;;;;;;;;;;;;;;;25.83;40.37;101870.25;5015220;28;19999;-52
2022/06/11 12:01:56;;;;;;;;;;;;;;;25.87;40.47;101859.97;5010684;28;20363;-53
2022/06/11 12:04:26;;;;;;;;;;;;;;;25.94;40.44;101852.94;5013737;28;21173;-50
2022/06/11 12:06:53;;;;;;;;;;;;;;;26.04;40.29;101844.69;5007191;28;19978;-50
2022/06/11 12:09:30;;;;;;;;;;;;;;;26.17;40.16;101845.09;5011664;28;19929;-53
2022/06/11 12:12:04;;;;;;;;;;;;;;;26.29;39.93;101842.06;5014193;28;19917;-51
2022/06/11 12:14:32;;;;;;;;;;;;;;;26.38;39.94;101838.41;5013647;28;19928;-50
2022/06/11 12:17:02;;;;;;;;;;;;;;;26.46;39.74;101832.16;5019166;28;19925;-51
2022/06/11 12:19:30;;;;;;;;;;;;;;;26.54;39.55;101839.44;5011764;28;19966;-53
2022/06/11 12:22:25;;;;;;;;;;;;;;;26.63;39.51;101841.09;5014624;28;19917;-50
2022/06/11 12:24:50;;;;;;;;;;;;;;;26.76;39.39;101837.91;4999519;28;19917;-50
2022/06/11 12:27:22;;;;;;;;;;;;;;;26.84;39.23;101837.09;5014704;28;19922;-51
2022/06/11 12:29:54;;;;;;;;;;;;;;;26.90;39.23;101828.28;5017877;28;19922;-50
2022/06/11 12:32:21;;;;;;;;;;;;;;;26.91;39.13;101820.03;5012279;28;19923;-52
2022/06/11 12:34:46;;;;;;;;;;;;;;;26.95;38.85;101823.22;5009394;28;19921;-51
2022/06/11 12:37:14;;;;;;;;;;;;;;;26.98;38.76;101825.59;5008993;28;20171;-51
2022/06/11 12:40:06;;;;;;;;;;;;;;;27.00;38.56;101823.53;5011379;28;19964;-52
2022/06/11 12:42:31;;;;;;;;;;;;;;;26.96;38.41;101826.75;5016132;28;19925;-52
2022/06/11 12:45:09;;;;;;;;;;;;;;;26.93;38.36;101822.56;5018591;28;19924;-50
2022/06/11 12:47:49;;;;;;;;;;;;;;;26.90;38.33;101822.88;5003322;28;19935;-51
2022/06/11 12:50:15;;;;;;;;;;;;;;;26.84;38.46;101819.00;5007896;28;19921;-53